Montanha, Brazil
Current Conditions -  °F | °C
As of 12:00 PM on Wednesday 22 Oct 2014 (Local Time) from SBPS Reporting Station
Rain Showers Rain Showers  
Wind Chill: 73°   Ceiling: 1200
Heat Index: 73°   Visibility: 1.2mi
Dew Point: 70°   Wind: 3mph
Humidity: 88%   Direction: 210°SSW
Pressure: 30.06"   Gusts: NA
Location:  18.13°S, 40.36°W
Report Text: SBPS 221400Z 21003KT 2000 SHRA BKN012 OVC030 23/21 Q1018
Loading
Personal Weather Stations






























Interactive Weather Map
Tropical Storm Tracking
New forecast layout! Learn more

10-Day Weather Forecast

Advertisements
Track Severe Weather on mobile